createdAt,value
2023-08-28T00:01:04.741Z,17.12
2023-08-28T00:06:08.320Z,16.96
2023-08-28T00:11:11.832Z,17.87
2023-08-28T00:16:16.702Z,18.01
2023-08-28T00:21:20.503Z,17.79
2023-08-28T00:26:24.251Z,17.47
2023-08-28T00:31:29.163Z,17.93
2023-08-28T00:36:32.808Z,17.79
2023-08-28T00:41:37.777Z,17.06
2023-08-28T00:46:42.806Z,17.86
2023-08-28T00:51:46.912Z,17.82
2023-08-28T00:56:51.827Z,17.40
2023-08-28T01:01:56.948Z,17.83
2023-08-28T01:07:08.046Z,17.82
2023-08-28T01:12:19.241Z,17.35
2023-08-28T01:17:25.717Z,16.19
2023-08-28T01:22:34.723Z,17.73
2023-08-28T01:27:41.148Z,17.51
2023-08-28T01:32:46.016Z,17.16
2023-08-28T01:38:13.538Z,17.54
2023-08-28T01:43:22.955Z,17.62
2023-08-28T01:48:28.420Z,17.66
2023-08-28T01:53:32.177Z,17.61
2023-08-28T01:58:40.491Z,17.66
2023-08-28T02:03:44.968Z,17.56
2023-08-28T02:08:48.686Z,17.55
2023-08-28T02:13:53.904Z,15.68
2023-08-28T02:18:57.415Z,17.45
2023-08-28T02:24:00.826Z,16.78
2023-08-28T02:29:06.072Z,17.56
2023-08-28T02:34:09.713Z,17.37
2023-08-28T02:39:13.300Z,16.90
2023-08-28T02:44:18.137Z,16.37
2023-08-28T02:49:21.589Z,17.02
2023-08-28T02:54:25.192Z,17.48
2023-08-28T02:59:30.125Z,17.27
2023-08-28T03:04:35.314Z,17.44
2023-08-28T03:09:39.996Z,17.17
2023-08-28T03:14:44.801Z,17.41
2023-08-28T03:19:48.257Z,17.34
2023-08-28T03:24:53.380Z,17.22
2023-08-28T03:29:58.409Z,17.31
2023-08-28T03:35:02.030Z,16.91
2023-08-28T03:40:06.144Z,17.06
2023-08-28T03:45:11.388Z,16.91
2023-08-28T03:50:14.802Z,16.77
2023-08-28T03:55:18.305Z,17.17
2023-08-28T04:00:23.365Z,17.18
2023-08-28T04:05:27.662Z,16.79
2023-08-28T04:10:32.802Z,16.78
2023-08-28T04:15:37.711Z,17.14
2023-08-28T04:20:42.456Z,16.70
2023-08-28T04:25:45.887Z,16.68
2023-08-28T04:30:50.939Z,17.15
2023-08-28T04:35:55.139Z,17.10
2023-08-28T04:40:58.568Z,17.07
2023-08-28T04:46:04.090Z,17.09
2023-08-28T04:51:09.084Z,16.85
2023-08-28T04:56:12.592Z,16.85
2023-08-28T05:01:18.242Z,15.69
2023-08-28T05:06:21.880Z,17.04
2023-08-28T05:11:25.644Z,16.57
2023-08-28T05:16:30.508Z,17.06
2023-08-28T05:21:34.077Z,16.63
2023-08-28T05:26:37.550Z,16.76
2023-08-28T05:31:42.707Z,16.98
2023-08-28T05:36:47.752Z,16.78
2023-08-28T05:41:51.364Z,16.84
2023-08-28T05:46:56.370Z,16.49
2023-08-28T05:52:00.426Z,16.04
2023-08-28T05:57:06.986Z,16.71
2023-08-28T06:02:14.026Z,16.89
2023-08-28T06:07:17.453Z,16.87
2023-08-28T06:12:22.886Z,16.45
2023-08-28T06:17:28.034Z,16.86
2023-08-28T06:22:31.496Z,16.36
2023-08-28T06:27:34.973Z,16.51
2023-08-28T06:32:39.882Z,16.71
2023-08-28T06:37:43.491Z,16.02
2023-08-28T06:42:46.968Z,16.67
2023-08-28T06:47:51.861Z,15.63
2023-08-28T06:52:55.529Z,16.69
2023-08-28T06:57:58.985Z,16.73
2023-08-28T07:03:04.129Z,16.75
2023-08-28T07:08:08.020Z,16.34
2023-08-28T07:13:11.560Z,16.74
2023-08-28T07:18:17.513Z,16.75
2023-08-28T07:23:21.263Z,16.76
2023-08-28T07:28:24.818Z,16.44
2023-08-28T07:33:29.611Z,16.87
2023-08-28T07:38:33.071Z,16.86
2023-08-28T07:43:36.511Z,16.08
2023-08-28T07:48:41.878Z,16.96
2023-08-28T07:53:45.806Z,16.56
2023-08-28T07:58:49.252Z,16.92
2023-08-28T08:03:54.075Z,16.72
2023-08-28T08:08:57.532Z,16.75
2023-08-28T08:14:01.039Z,16.67
2023-08-28T08:19:06.033Z,16.97
2023-08-28T08:24:09.720Z,16.49
2023-08-28T08:29:13.230Z,17.21
2023-08-28T08:34:19.505Z,17.13
2023-08-28T08:39:25.236Z,17.14
2023-08-28T08:44:28.821Z,17.31
2023-08-28T08:49:35.215Z,17.25
2023-08-28T08:54:42.037Z,17.45
2023-08-28T08:59:45.862Z,17.46
2023-08-28T09:04:51.030Z,17.54
2023-08-28T09:09:54.578Z,17.27
2023-08-28T09:14:59.028Z,17.60
2023-08-28T09:20:14.679Z,17.78
2023-08-28T09:25:19.200Z,17.64
2023-08-28T09:30:31.242Z,17.68
2023-08-28T09:35:40.092Z,17.75
2023-08-28T09:40:44.165Z,17.78
2023-08-28T09:45:47.841Z,18.00
2023-08-28T09:50:53.998Z,18.09
2023-08-28T09:55:57.532Z,18.04
2023-08-28T10:01:01.407Z,17.72
2023-08-28T10:06:08.442Z,17.01
2023-08-28T10:11:12.401Z,18.06
2023-08-28T10:16:22.554Z,17.97
2023-08-28T10:21:28.995Z,18.34
2023-08-28T10:26:33.379Z,17.76
2023-08-28T10:31:38.655Z,18.29
2023-08-28T10:37:00.814Z,17.80
2023-08-28T10:42:10.876Z,18.63
2023-08-28T10:47:17.207Z,18.75
2023-08-28T10:52:23.497Z,18.77
2023-08-28T10:57:28.372Z,18.77
2023-08-28T11:03:07.341Z,19.00
2023-08-28T11:08:14.545Z,18.96
2023-08-28T11:13:23.483Z,17.85
2023-08-28T11:18:29.530Z,17.31
2023-08-28T11:23:38.016Z,19.28
2023-08-28T11:28:46.275Z,19.05
2023-08-28T11:33:51.969Z,19.30
2023-08-28T11:38:57.037Z,19.40
2023-08-28T11:44:00.636Z,18.65
2023-08-28T11:49:08.513Z,19.49
2023-08-28T11:54:13.390Z,18.82
2023-08-28T11:59:17.216Z,19.13
2023-08-28T12:04:24.601Z,19.11
2023-08-28T12:09:29.645Z,19.44
2023-08-28T12:14:35.474Z,18.86
2023-08-28T12:19:39.319Z,19.36
2023-08-28T12:24:45.356Z,19.12
2023-08-28T12:29:49.854Z,19.32
2023-08-28T12:34:53.337Z,19.25
2023-08-28T12:39:58.232Z,19.38
2023-08-28T12:45:06.161Z,19.36
2023-08-28T12:50:11.394Z,19.08
2023-08-28T12:55:16.551Z,19.38
2023-08-28T13:00:21.229Z,19.38
2023-08-28T13:05:24.710Z,19.41
2023-08-28T13:10:29.508Z,19.21
2023-08-28T13:15:33.156Z,19.42
2023-08-28T13:20:36.578Z,19.41
2023-08-28T13:25:41.611Z,19.41
2023-08-28T13:30:45.242Z,19.04
2023-08-28T13:35:49.729Z,19.40
2023-08-28T13:40:54.768Z,19.38
2023-08-28T13:45:58.959Z,19.09
2023-08-28T13:51:02.493Z,19.29
2023-08-28T13:56:07.501Z,19.09
2023-08-28T14:01:11.087Z,19.36
2023-08-28T14:06:14.644Z,18.02
2023-08-28T14:11:19.558Z,18.09
2023-08-28T14:16:23.067Z,19.25
2023-08-28T14:21:26.646Z,18.85
2023-08-28T14:26:32.029Z,19.20
2023-08-28T14:31:35.522Z,17.23
2023-08-28T14:36:39.036Z,19.16
2023-08-28T14:41:43.867Z,19.20
2023-08-28T14:46:47.359Z,18.84
2023-08-28T14:51:50.962Z,19.18
2023-08-28T14:56:55.805Z,19.23
2023-08-28T15:01:59.328Z,18.69
2023-08-28T15:07:03.713Z,17.07
2023-08-28T15:12:08.929Z,18.96
2023-08-28T15:17:12.414Z,18.68
2023-08-28T15:22:15.857Z,18.69
2023-08-28T15:27:20.770Z,18.59
2023-08-28T15:32:24.348Z,18.91
2023-08-28T15:37:27.867Z,18.86
2023-08-28T15:42:32.699Z,18.89
2023-08-28T15:47:37.502Z,18.11
2023-08-28T15:52:41.128Z,18.86
2023-08-28T15:57:46.000Z,18.81
2023-08-28T16:02:49.750Z,18.21
2023-08-28T16:07:53.176Z,18.62
2023-08-28T16:12:58.078Z,18.80
2023-08-28T16:18:01.623Z,18.39
2023-08-28T16:23:05.674Z,18.36
2023-08-28T16:28:12.561Z,18.70
2023-08-28T16:33:16.568Z,18.52
2023-08-28T16:38:20.844Z,18.23
2023-08-28T16:43:25.601Z,18.05
2023-08-28T16:48:29.071Z,18.29
2023-08-28T16:53:32.958Z,17.86
2023-08-28T16:58:37.848Z,18.50
2023-08-28T17:03:41.540Z,18.22
2023-08-28T17:08:45.084Z,17.74
2023-08-28T17:13:49.881Z,18.44
2023-08-28T17:18:53.419Z,18.45
2023-08-28T17:23:56.829Z,18.17
2023-08-28T17:29:02.523Z,18.47
2023-08-28T17:34:06.238Z,18.45
2023-08-28T17:39:14.279Z,18.52
2023-08-28T17:44:22.996Z,18.21
2023-08-28T17:49:26.569Z,18.45
2023-08-28T17:54:30.128Z,18.11
2023-08-28T17:59:34.984Z,17.68
2023-08-28T18:04:39.166Z,18.33
2023-08-28T18:09:42.848Z,18.11
2023-08-28T18:14:47.689Z,18.45
2023-08-28T18:19:51.247Z,18.28
2023-08-28T18:24:55.005Z,18.18
2023-08-28T18:29:59.945Z,18.07
2023-08-28T18:35:04.361Z,16.47
2023-08-28T18:40:09.327Z,17.78
2023-08-28T18:45:14.181Z,18.07
2023-08-28T18:50:18.464Z,18.17
2023-08-28T18:55:32.529Z,17.64
2023-08-28T19:00:38.842Z,17.99
2023-08-28T19:05:42.361Z,18.07
2023-08-28T19:10:46.058Z,16.68
2023-08-28T19:15:51.160Z,17.00
2023-08-28T19:21:02.601Z,16.81
2023-08-28T19:26:07.039Z,17.81
2023-08-28T19:31:12.571Z,16.08
2023-08-28T19:36:16.119Z,17.30
2023-08-28T19:41:19.597Z,17.72
2023-08-28T19:46:24.524Z,17.50
2023-08-28T19:51:28.734Z,17.68
2023-08-28T19:56:32.557Z,17.64
2023-08-28T20:01:37.614Z,15.45
2023-08-28T20:06:41.138Z,17.57
2023-08-28T20:11:44.584Z,17.21
2023-08-28T20:16:50.486Z,17.52
2023-08-28T20:21:53.989Z,17.48
2023-08-28T20:26:57.564Z,17.17
2023-08-28T20:32:02.521Z,17.18
2023-08-28T20:37:07.319Z,17.11
2023-08-28T20:42:10.900Z,17.35
2023-08-28T20:47:15.898Z,17.34
2023-08-28T20:52:19.488Z,17.22
2023-08-28T20:57:23.065Z,15.33
2023-08-28T21:02:28.004Z,16.98
2023-08-28T21:07:31.541Z,16.02
2023-08-28T21:12:35.016Z,16.95
2023-08-28T21:17:39.891Z,17.26
2023-08-28T21:22:43.479Z,17.12
2023-08-28T21:27:47.051Z,17.21
2023-08-28T21:32:51.803Z,17.26
2023-08-28T21:37:55.392Z,17.22
2023-08-28T21:42:58.998Z,17.21
2023-08-28T21:48:04.103Z,16.97
2023-08-28T21:53:26.066Z,15.63
2023-08-28T21:58:47.937Z,16.62
2023-08-28T22:04:11.226Z,16.54
2023-08-28T22:09:33.370Z,16.75
2023-08-28T22:15:01.190Z,14.74
2023-08-28T22:20:07.670Z,16.95
2023-08-28T22:25:11.283Z,16.89
2023-08-28T22:30:14.920Z,16.87
2023-08-28T22:35:21.007Z,16.88
2023-08-28T22:40:24.667Z,16.35
2023-08-28T22:45:28.161Z,16.81
2023-08-28T22:50:34.268Z,16.82
2023-08-28T22:55:37.703Z,16.39
2023-08-28T23:00:41.240Z,15.87
2023-08-28T23:05:46.791Z,16.76
2023-08-28T23:10:50.267Z,16.52
2023-08-28T23:15:54.442Z,16.71
2023-08-28T23:20:59.994Z,16.52
2023-08-28T23:26:04.064Z,16.67
2023-08-28T23:31:08.066Z,16.67
2023-08-28T23:36:13.113Z,16.64
2023-08-28T23:41:16.851Z,16.60
2023-08-28T23:46:20.366Z,15.28
2023-08-28T23:51:25.218Z,16.62
2023-08-28T23:56:28.691Z,16.59
